createdAt,value
2023-03-26T00:02:19.460Z,75.76
2023-03-26T00:04:46.444Z,76.48
2023-03-26T00:07:12.924Z,76.28
2023-03-26T00:09:39.385Z,76.38
2023-03-26T00:12:06.176Z,76.80
2023-03-26T00:14:33.423Z,75.86
2023-03-26T00:16:59.908Z,76.34
2023-03-26T00:19:27.852Z,77.76
2023-03-26T00:21:54.323Z,76.63
2023-03-26T00:24:20.770Z,76.30
2023-03-26T00:26:53.096Z,79.70
2023-03-26T00:29:19.593Z,79.67
2023-03-26T00:31:46.530Z,80.26
2023-03-26T00:34:15.458Z,79.95
2023-03-26T00:36:42.292Z,79.66
2023-03-26T00:39:10.021Z,80.50
2023-03-26T00:41:37.123Z,82.22
2023-03-26T00:44:03.996Z,82.76
2023-03-26T00:46:32.209Z,82.66
2023-03-26T00:48:59.697Z,84.29
2023-03-26T00:51:28.032Z,84.72
2023-03-26T00:53:54.769Z,83.50
2023-03-26T00:56:21.286Z,84.31
2023-03-26T00:58:49.968Z,82.59
2023-03-26T01:01:21.537Z,85.51
2023-03-26T01:04:04.898Z,84.57
2023-03-26T01:06:37.669Z,85.50
2023-03-26T01:09:15.801Z,83.11
2023-03-26T01:11:43.051Z,82.69
2023-03-26T01:14:12.997Z,84.08
2023-03-26T01:16:45.037Z,83.39
2023-03-26T01:19:30.993Z,84.87
2023-03-26T01:21:58.313Z,82.79
2023-03-26T01:24:24.777Z,82.46
2023-03-26T01:26:55.627Z,82.53
2023-03-26T01:29:31.598Z,82.96
2023-03-26T01:32:12.830Z,82.53
2023-03-26T01:34:42.405Z,82.02
2023-03-26T01:37:27.088Z,82.05
2023-03-26T01:40:02.823Z,81.60
2023-03-26T01:42:48.063Z,81.94
2023-03-26T01:45:18.918Z,82.58
2023-03-26T01:47:46.321Z,81.79
2023-03-26T01:50:13.201Z,81.75
2023-03-26T01:52:39.872Z,81.84
2023-03-26T01:55:11.635Z,82.12
2023-03-26T01:58:07.645Z,82.26
2023-03-26T02:00:42.943Z,82.31
2023-03-26T02:03:23.991Z,81.85
2023-03-26T02:06:15.619Z,82.70
2023-03-26T02:08:50.463Z,81.69
2023-03-26T02:11:16.975Z,83.23
2023-03-26T02:13:46.121Z,81.91
2023-03-26T02:16:16.303Z,82.26
2023-03-26T02:18:44.966Z,81.80
2023-03-26T02:21:21.270Z,82.71
2023-03-26T02:23:50.657Z,82.29
2023-03-26T02:26:19.707Z,83.83
2023-03-26T02:28:46.259Z,82.97
2023-03-26T02:31:13.822Z,83.15
2023-03-26T02:33:40.636Z,81.60
2023-03-26T02:36:08.574Z,82.60
2023-03-26T02:38:35.594Z,82.19
2023-03-26T02:41:02.992Z,81.78
2023-03-26T02:43:30.060Z,82.74
2023-03-26T02:45:57.359Z,81.32
2023-03-26T02:48:23.984Z,83.13
2023-03-26T02:50:54.442Z,82.83
2023-03-26T02:53:21.699Z,82.15
2023-03-26T02:55:48.158Z,83.32
2023-03-26T02:58:17.308Z,83.17
2023-03-26T03:00:44.753Z,82.89
2023-03-26T03:03:11.238Z,83.21
2023-03-26T03:05:38.996Z,81.57
2023-03-26T03:08:05.916Z,81.50
2023-03-26T03:10:37.683Z,82.79
2023-03-26T03:13:07.593Z,83.29
2023-03-26T03:15:34.912Z,82.47
2023-03-26T03:18:01.906Z,83.34
2023-03-26T03:20:30.271Z,83.28
2023-03-26T03:22:56.809Z,82.44
2023-03-26T03:25:23.357Z,82.32
2023-03-26T03:27:50.244Z,82.62
2023-03-26T03:30:16.972Z,81.24
2023-03-26T03:32:43.478Z,82.50
2023-03-26T03:35:10.441Z,82.30
2023-03-26T03:37:36.953Z,82.36
2023-03-26T03:40:07.478Z,81.04
2023-03-26T03:42:33.924Z,80.75
2023-03-26T03:45:00.375Z,82.10
2023-03-26T03:47:26.808Z,81.59
2023-03-26T03:49:53.675Z,81.20
2023-03-26T03:52:20.141Z,80.13
2023-03-26T03:54:46.578Z,80.01
2023-03-26T03:57:13.978Z,80.14
2023-03-26T03:59:47.985Z,81.48
2023-03-26T04:02:26.130Z,80.02
2023-03-26T04:04:53.116Z,80.53
2023-03-26T04:07:20.322Z,81.03
2023-03-26T04:09:46.769Z,81.23
2023-03-26T04:12:13.234Z,80.80
2023-03-26T04:14:39.660Z,81.70
2023-03-26T04:17:06.186Z,80.77
2023-03-26T04:19:32.655Z,80.56
2023-03-26T04:22:02.355Z,80.54
2023-03-26T04:24:29.923Z,81.50
2023-03-26T04:27:08.679Z,80.33
2023-03-26T04:29:42.934Z,79.88
2023-03-26T04:32:20.317Z,79.71
2023-03-26T04:34:47.892Z,80.93
2023-03-26T04:37:22.540Z,80.00
2023-03-26T04:39:50.101Z,80.80
2023-03-26T04:42:19.852Z,81.85
2023-03-26T04:44:50.793Z,80.73
2023-03-26T04:47:18.215Z,79.76
2023-03-26T04:49:46.112Z,79.80
2023-03-26T04:52:13.247Z,79.78
2023-03-26T04:54:40.927Z,80.29
2023-03-26T04:57:27.459Z,80.43
2023-03-26T04:59:53.890Z,80.59
2023-03-26T05:02:20.440Z,80.82
2023-03-26T05:04:48.397Z,79.33
2023-03-26T05:07:19.238Z,79.83
2023-03-26T05:09:46.052Z,80.90
2023-03-26T05:12:12.637Z,81.08
2023-03-26T05:14:39.047Z,80.45
2023-03-26T05:17:05.980Z,81.40
2023-03-26T05:19:32.832Z,81.24
2023-03-26T05:21:59.250Z,80.52
2023-03-26T05:24:27.033Z,80.33
2023-03-26T05:26:53.523Z,79.83
2023-03-26T05:29:22.067Z,80.40
2023-03-26T05:31:48.648Z,79.72
2023-03-26T05:34:15.281Z,79.51
2023-03-26T05:36:42.494Z,77.87
2023-03-26T05:39:09.006Z,79.03
2023-03-26T05:41:35.474Z,78.96
2023-03-26T05:44:01.930Z,78.01
2023-03-26T05:46:28.632Z,78.89
2023-03-26T05:48:55.205Z,77.64
2023-03-26T05:51:23.365Z,77.63
2023-03-26T05:53:49.814Z,77.98
2023-03-26T05:56:16.271Z,78.27
2023-03-26T05:58:43.568Z,76.59
2023-03-26T06:01:16.454Z,77.54
2023-03-26T06:03:44.580Z,78.12
2023-03-26T06:06:19.291Z,77.79
2023-03-26T06:09:02.693Z,78.70
2023-03-26T06:11:32.937Z,78.84
2023-03-26T06:14:00.399Z,79.05
2023-03-26T06:16:28.080Z,78.99
2023-03-26T06:18:57.585Z,79.44
2023-03-26T06:21:27.932Z,78.75
2023-03-26T06:23:54.891Z,79.01
2023-03-26T06:26:21.824Z,78.41
2023-03-26T06:28:48.284Z,78.67
2023-03-26T06:31:14.796Z,78.44
2023-03-26T06:33:41.305Z,78.97
2023-03-26T06:36:08.191Z,77.90
2023-03-26T06:38:34.652Z,78.20
2023-03-26T06:41:06.139Z,78.33
2023-03-26T06:43:33.690Z,79.16
2023-03-26T06:46:04.240Z,78.10
2023-03-26T06:48:31.199Z,78.26
2023-03-26T06:50:58.022Z,78.55
2023-03-26T06:53:24.468Z,76.60
2023-03-26T06:55:52.272Z,77.13
2023-03-26T06:58:18.769Z,76.54
2023-03-26T07:00:45.241Z,76.90
2023-03-26T07:03:11.706Z,75.86
2023-03-26T07:05:40.465Z,75.00
2023-03-26T07:08:06.923Z,75.20
2023-03-26T07:10:33.566Z,74.55
2023-03-26T07:13:00.004Z,75.24
2023-03-26T07:15:28.820Z,74.46
2023-03-26T07:17:55.483Z,74.34
2023-03-26T07:20:22.416Z,73.80
2023-03-26T07:22:49.664Z,73.86
2023-03-26T07:25:17.795Z,74.51
2023-03-26T07:28:04.587Z,74.18
2023-03-26T07:30:40.540Z,75.71
2023-03-26T07:33:17.363Z,74.81
2023-03-26T07:35:46.764Z,74.79
2023-03-26T07:38:41.960Z,74.14
2023-03-26T07:41:14.568Z,74.31
2023-03-26T07:43:54.154Z,74.47
2023-03-26T07:46:29.156Z,74.09
2023-03-26T07:48:58.169Z,73.98
2023-03-26T07:51:24.974Z,75.61
2023-03-26T07:53:51.753Z,75.58
2023-03-26T07:56:29.300Z,74.91
2023-03-26T07:59:19.237Z,73.50
2023-03-26T08:02:17.315Z,74.50
2023-03-26T08:05:22.703Z,76.41
2023-03-26T08:08:13.761Z,76.44
2023-03-26T08:11:13.480Z,76.33
2023-03-26T08:13:48.615Z,75.25
2023-03-26T08:16:54.087Z,73.78
2023-03-26T08:19:46.560Z,73.29
2023-03-26T08:22:27.543Z,73.51
2023-03-26T08:25:34.844Z,73.30
2023-03-26T08:28:16.445Z,72.08
2023-03-26T08:30:43.276Z,70.64
2023-03-26T08:33:12.571Z,71.09
2023-03-26T08:35:42.717Z,72.47
2023-03-26T08:38:11.483Z,71.09
2023-03-26T08:41:02.788Z,71.26
2023-03-26T08:43:55.563Z,69.26
2023-03-26T08:46:56.164Z,69.31
2023-03-26T08:49:37.008Z,69.58
2023-03-26T08:52:28.398Z,68.92
2023-03-26T08:55:16.256Z,68.49
2023-03-26T08:58:10.442Z,67.24
2023-03-26T09:00:47.473Z,67.04
2023-03-26T09:03:38.532Z,66.67
2023-03-26T09:06:32.905Z,67.64
2023-03-26T09:09:32.172Z,66.76
2023-03-26T09:12:14.624Z,65.45
2023-03-26T09:14:57.171Z,63.88
2023-03-26T09:18:18.041Z,64.95
2023-03-26T09:20:59.368Z,64.39
2023-03-26T09:24:01.790Z,62.64
2023-03-26T09:26:47.813Z,62.37
2023-03-26T09:29:51.807Z,63.03
2023-03-26T09:33:03.447Z,63.11
2023-03-26T09:35:42.046Z,63.13
2023-03-26T09:38:22.422Z,63.33
2023-03-26T09:40:59.323Z,62.89
2023-03-26T09:43:40.319Z,63.22
2023-03-26T09:46:25.395Z,62.25
2023-03-26T09:49:21.490Z,60.34
2023-03-26T09:52:12.802Z,60.70
2023-03-26T09:54:51.976Z,62.70
2023-03-26T09:57:39.792Z,61.21
2023-03-26T10:00:15.759Z,62.00
2023-03-26T10:02:58.716Z,63.34
2023-03-26T10:05:34.275Z,62.18
2023-03-26T10:08:24.613Z,63.20
2023-03-26T10:11:03.280Z,62.55
2023-03-26T10:13:54.821Z,61.51
2023-03-26T10:16:27.346Z,61.13
2023-03-26T10:19:12.789Z,59.69
2023-03-26T10:21:59.443Z,60.18
2023-03-26T10:24:58.951Z,58.95
2023-03-26T10:27:51.272Z,59.38
2023-03-26T10:30:20.515Z,58.57
2023-03-26T10:32:59.640Z,59.97
2023-03-26T10:35:50.299Z,60.23
2023-03-26T10:38:33.134Z,60.44
2023-03-26T10:41:08.607Z,59.43
2023-03-26T10:43:54.855Z,58.92
2023-03-26T10:46:49.119Z,58.85
2023-03-26T10:49:49.864Z,59.24
2023-03-26T10:52:22.324Z,57.99
2023-03-26T10:55:18.319Z,59.51
2023-03-26T10:57:50.695Z,58.71
2023-03-26T11:00:26.536Z,58.29
2023-03-26T11:03:08.493Z,58.00
2023-03-26T11:06:10.484Z,58.07
2023-03-26T11:08:52.334Z,58.37
2023-03-26T11:11:36.328Z,58.13
2023-03-26T11:14:10.995Z,57.66
2023-03-26T11:16:55.448Z,58.12
2023-03-26T11:19:24.193Z,58.29
2023-03-26T11:22:16.896Z,57.28
2023-03-26T11:24:51.343Z,57.73
2023-03-26T11:28:03.765Z,57.34
2023-03-26T11:30:55.512Z,57.12
2023-03-26T11:33:36.886Z,57.31
2023-03-26T11:36:09.856Z,56.85
2023-03-26T11:38:44.910Z,57.72
2023-03-26T11:41:15.312Z,56.36
2023-03-26T11:43:41.854Z,56.64
2023-03-26T11:46:13.034Z,56.47
2023-03-26T11:48:47.165Z,56.59
2023-03-26T11:51:25.330Z,57.60
2023-03-26T11:53:51.957Z,56.73
2023-03-26T11:57:06.022Z,56.15
2023-03-26T11:59:57.292Z,57.33
2023-03-26T12:02:33.919Z,56.51
2023-03-26T12:05:29.458Z,57.10
2023-03-26T12:07:58.957Z,57.13
2023-03-26T12:10:33.678Z,57.42
2023-03-26T12:13:02.811Z,56.48
2023-03-26T12:15:31.846Z,57.07
2023-03-26T12:18:17.428Z,57.25
2023-03-26T12:20:44.932Z,57.24
2023-03-26T12:23:35.718Z,58.36
2023-03-26T12:26:14.762Z,57.28
2023-03-26T12:28:49.945Z,57.16
2023-03-26T12:31:20.572Z,56.93
2023-03-26T12:34:07.975Z,57.31
2023-03-26T12:36:38.925Z,57.59
2023-03-26T12:40:09.584Z,57.86
2023-03-26T12:44:46.258Z,56.43
2023-03-26T12:45:14.364Z,57.48
2023-03-26T12:47:59.726Z,57.34
2023-03-26T12:51:03.299Z,59.34
2023-03-26T12:53:32.690Z,59.66
2023-03-26T12:56:17.316Z,58.54
2023-03-26T12:58:55.000Z,59.06
2023-03-26T13:02:15.982Z,57.69
2023-03-26T13:04:45.157Z,57.81
2023-03-26T13:07:45.441Z,58.33
2023-03-26T13:11:13.143Z,58.75
2023-03-26T13:14:16.777Z,58.40
2023-03-26T13:16:46.487Z,57.70
2023-03-26T13:19:22.888Z,58.41
2023-03-26T13:22:17.268Z,58.55
2023-03-26T13:25:06.754Z,58.67
2023-03-26T13:27:41.961Z,59.28
2023-03-26T13:30:26.952Z,56.49
2023-03-26T13:33:05.676Z,58.11
2023-03-26T13:36:06.532Z,57.38
2023-03-26T13:39:04.755Z,56.66
2023-03-26T13:41:36.896Z,54.82
2023-03-26T13:44:18.539Z,56.07
2023-03-26T13:46:55.155Z,56.71
2023-03-26T13:49:46.746Z,56.64
2023-03-26T13:52:23.102Z,57.18
2023-03-26T13:55:04.438Z,57.51
2023-03-26T13:57:35.956Z,58.62
2023-03-26T14:00:12.510Z,56.82
2023-03-26T14:02:40.609Z,57.68
2023-03-26T14:05:27.411Z,56.32
2023-03-26T14:08:12.902Z,56.75
2023-03-26T14:10:49.071Z,57.29
2023-03-26T14:13:33.661Z,57.39
2023-03-26T14:16:16.260Z,57.97
2023-03-26T14:18:52.281Z,57.52
2023-03-26T14:21:43.436Z,57.82
2023-03-26T14:24:31.057Z,56.80
2023-03-26T14:27:12.987Z,55.85
2023-03-26T14:29:58.358Z,56.40
2023-03-26T14:33:04.100Z,57.20
2023-03-26T14:35:57.768Z,56.81
2023-03-26T14:38:48.635Z,56.95
2023-03-26T14:41:21.791Z,56.24
2023-03-26T14:44:13.519Z,57.53
2023-03-26T14:46:48.712Z,56.78
2023-03-26T14:49:28.344Z,57.04
2023-03-26T14:52:19.225Z,56.56
2023-03-26T14:54:50.533Z,57.35
2023-03-26T14:57:28.878Z,58.08
2023-03-26T15:00:12.105Z,56.65
2023-03-26T15:03:07.499Z,57.39
2023-03-26T15:05:59.182Z,57.30
2023-03-26T15:08:43.434Z,55.79
2023-03-26T15:11:28.631Z,56.43
2023-03-26T15:14:32.633Z,56.25
2023-03-26T15:17:09.486Z,56.17
2023-03-26T15:19:45.320Z,56.69
2023-03-26T15:22:25.946Z,56.17
2023-03-26T15:25:07.526Z,56.31
2023-03-26T15:27:57.286Z,55.62
2023-03-26T15:30:56.391Z,56.53
2023-03-26T15:34:00.869Z,56.00
2023-03-26T15:36:45.740Z,55.52
2023-03-26T15:39:30.287Z,56.61
2023-03-26T15:42:17.080Z,56.33
2023-03-26T15:45:22.353Z,56.38
2023-03-26T15:48:20.730Z,55.51
2023-03-26T15:51:47.020Z,55.39
2023-03-26T15:54:31.553Z,55.35
2023-03-26T15:57:07.772Z,55.28
2023-03-26T15:59:54.357Z,54.22
2023-03-26T16:02:50.203Z,53.65
2023-03-26T16:06:14.049Z,54.87
2023-03-26T16:09:00.454Z,55.38
2023-03-26T16:12:25.874Z,55.13
2023-03-26T16:15:07.385Z,55.41
2023-03-26T16:18:12.200Z,54.37
2023-03-26T16:20:50.915Z,53.85
2023-03-26T16:23:47.715Z,54.48
2023-03-26T16:26:19.893Z,55.31
2023-03-26T16:28:48.948Z,54.41
2023-03-26T16:31:37.228Z,54.53
2023-03-26T16:34:46.513Z,54.52
2023-03-26T16:37:32.001Z,55.73
2023-03-26T16:40:17.209Z,56.28
2023-03-26T16:43:18.748Z,56.44
2023-03-26T16:45:57.022Z,55.62
2023-03-26T16:48:38.554Z,55.56
2023-03-26T16:51:11.277Z,55.77
2023-03-26T16:53:49.657Z,55.78
2023-03-26T16:56:16.611Z,55.01
2023-03-26T16:58:58.578Z,54.77
2023-03-26T17:01:34.307Z,54.82
2023-03-26T17:04:06.060Z,55.75
2023-03-26T17:06:53.640Z,55.59
2023-03-26T17:09:34.287Z,55.30
2023-03-26T17:12:12.522Z,56.26
2023-03-26T17:15:00.213Z,55.96
2023-03-26T17:17:47.909Z,55.96
2023-03-26T17:20:33.230Z,57.08
2023-03-26T17:23:14.525Z,55.85
2023-03-26T17:25:52.856Z,56.82
2023-03-26T17:28:28.441Z,57.46
2023-03-26T17:31:23.610Z,58.19
2023-03-26T17:33:50.675Z,58.70
2023-03-26T17:36:24.054Z,58.32
2023-03-26T17:38:50.618Z,58.51
2023-03-26T17:41:51.048Z,58.51
2023-03-26T17:44:36.489Z,58.88
2023-03-26T17:47:06.530Z,58.86
2023-03-26T17:49:35.263Z,59.61
2023-03-26T17:52:19.394Z,59.73
2023-03-26T17:54:49.191Z,59.75
2023-03-26T17:57:40.105Z,59.72
2023-03-26T18:00:16.246Z,60.70
2023-03-26T18:02:50.530Z,60.57
2023-03-26T18:05:17.601Z,59.77
2023-03-26T18:08:15.082Z,61.14
2023-03-26T18:10:54.737Z,61.00
2023-03-26T18:13:24.057Z,61.45
2023-03-26T18:16:11.817Z,60.41
2023-03-26T18:18:57.608Z,60.70
2023-03-26T18:21:37.230Z,60.64
2023-03-26T18:24:07.020Z,60.49
2023-03-26T18:26:39.763Z,62.44
2023-03-26T18:29:27.455Z,61.98
2023-03-26T18:32:03.917Z,63.83
2023-03-26T18:34:33.069Z,62.58
2023-03-26T18:37:10.814Z,62.77
2023-03-26T18:39:38.357Z,62.31
2023-03-26T18:42:06.454Z,62.73
2023-03-26T18:44:36.741Z,63.00
2023-03-26T18:47:07.231Z,62.30
2023-03-26T18:49:33.659Z,62.20
2023-03-26T18:52:04.590Z,62.56
2023-03-26T18:54:35.524Z,63.13
2023-03-26T18:57:15.545Z,63.78
2023-03-26T18:59:45.322Z,63.68
2023-03-26T19:02:14.309Z,63.86
2023-03-26T19:04:46.064Z,63.85
2023-03-26T19:07:16.496Z,64.33
2023-03-26T19:09:44.114Z,64.54
2023-03-26T19:12:38.525Z,65.07
2023-03-26T19:15:12.789Z,65.09
2023-03-26T19:17:44.184Z,65.93
2023-03-26T19:20:18.845Z,65.22
2023-03-26T19:22:47.599Z,66.08
2023-03-26T19:25:22.496Z,66.01
2023-03-26T19:27:50.684Z,66.50
2023-03-26T19:30:29.337Z,66.26
2023-03-26T19:33:13.481Z,66.57
2023-03-26T19:35:42.339Z,66.41
2023-03-26T19:38:23.202Z,66.55
2023-03-26T19:40:55.464Z,66.79
2023-03-26T19:43:23.934Z,66.82
2023-03-26T19:45:59.939Z,65.93
2023-03-26T19:48:46.353Z,65.72
2023-03-26T19:51:20.424Z,65.62
2023-03-26T19:53:51.283Z,65.39
2023-03-26T19:56:20.810Z,65.20
2023-03-26T19:58:48.511Z,65.56
2023-03-26T20:01:27.106Z,65.36
2023-03-26T20:04:00.699Z,65.91
2023-03-26T20:06:42.639Z,65.42
2023-03-26T20:09:11.920Z,65.61
2023-03-26T20:11:39.711Z,66.14
2023-03-26T20:14:26.780Z,65.54
2023-03-26T20:16:53.658Z,65.99
2023-03-26T20:19:20.504Z,65.05
2023-03-26T20:21:46.988Z,65.03
2023-03-26T20:24:17.924Z,65.82
2023-03-26T20:26:45.770Z,65.36
2023-03-26T20:29:13.473Z,64.92
2023-03-26T20:31:41.683Z,64.39
2023-03-26T20:34:21.743Z,64.19
2023-03-26T20:36:54.205Z,65.30
2023-03-26T20:39:22.746Z,64.14
2023-03-26T20:41:50.970Z,64.19
2023-03-26T20:44:19.625Z,63.76
2023-03-26T20:46:48.431Z,63.83
2023-03-26T20:49:15.378Z,63.88
2023-03-26T20:51:42.067Z,63.25
2023-03-26T20:54:17.558Z,63.04
2023-03-26T20:56:45.583Z,63.78
2023-03-26T20:59:17.560Z,63.61
2023-03-26T21:01:44.352Z,63.93
2023-03-26T21:04:11.575Z,63.76
2023-03-26T21:06:38.068Z,64.06
2023-03-26T21:09:04.930Z,65.01
2023-03-26T21:12:00.638Z,65.02
2023-03-26T21:14:38.997Z,64.77
2023-03-26T21:17:08.064Z,65.85
2023-03-26T21:19:34.756Z,65.52
2023-03-26T21:22:33.178Z,65.10
2023-03-26T21:25:21.452Z,64.51
2023-03-26T21:28:11.600Z,64.44
2023-03-26T21:30:39.721Z,64.44
2023-03-26T21:33:06.385Z,64.79
2023-03-26T21:35:34.666Z,64.21
2023-03-26T21:38:06.144Z,63.74
2023-03-26T21:40:32.996Z,64.54
2023-03-26T21:42:59.798Z,64.32
2023-03-26T21:45:26.691Z,64.31
2023-03-26T21:47:53.463Z,63.93
2023-03-26T21:50:22.802Z,64.02
2023-03-26T21:52:50.653Z,63.88
2023-03-26T21:55:20.156Z,64.06
2023-03-26T21:58:12.909Z,63.44
2023-03-26T22:01:06.841Z,63.80
2023-03-26T22:03:57.864Z,64.03
2023-03-26T22:06:43.746Z,63.45
2023-03-26T22:09:12.797Z,63.88
2023-03-26T22:11:41.979Z,63.40
2023-03-26T22:14:08.804Z,63.87
2023-03-26T22:16:35.381Z,64.08
2023-03-26T22:19:01.827Z,64.08
2023-03-26T22:21:28.368Z,63.81
2023-03-26T22:23:54.853Z,63.51
2023-03-26T22:26:23.461Z,64.01
2023-03-26T22:28:50.964Z,64.23
2023-03-26T22:31:17.526Z,64.04
2023-03-26T22:33:44.124Z,63.95
2023-03-26T22:36:23.387Z,64.18
2023-03-26T22:38:53.137Z,64.42
2023-03-26T22:41:19.680Z,64.88
2023-03-26T22:43:46.394Z,64.96
2023-03-26T22:46:13.736Z,64.93
2023-03-26T22:48:45.718Z,65.46
2023-03-26T22:51:12.673Z,65.17
2023-03-26T22:53:39.101Z,65.26
2023-03-26T22:56:07.219Z,64.42
2023-03-26T22:58:34.411Z,64.53
2023-03-26T23:01:20.208Z,64.21
2023-03-26T23:03:47.202Z,64.93
2023-03-26T23:06:14.130Z,64.10
2023-03-26T23:08:41.136Z,64.75
2023-03-26T23:11:10.340Z,65.02
2023-03-26T23:13:36.791Z,65.00
2023-03-26T23:16:04.478Z,64.76
2023-03-26T23:18:31.268Z,64.70
2023-03-26T23:20:58.317Z,64.70
2023-03-26T23:23:28.699Z,64.33
2023-03-26T23:26:01.103Z,64.17
2023-03-26T23:28:30.190Z,63.97
2023-03-26T23:30:57.072Z,64.01
2023-03-26T23:33:30.027Z,63.86
2023-03-26T23:35:57.783Z,64.74
2023-03-26T23:38:27.822Z,65.09
2023-03-26T23:41:10.164Z,65.66
2023-03-26T23:43:39.576Z,65.85
2023-03-26T23:46:23.941Z,66.14
2023-03-26T23:48:51.255Z,66.73
2023-03-26T23:51:22.188Z,66.94
2023-03-26T23:53:49.207Z,66.35
2023-03-26T23:56:16.223Z,66.71
2023-03-26T23:58:42.878Z,66.74
